Time;durP1;ratioP1;P1;durP2;ratioP2;P2;SDS_P1;SDS_P2;PMS_P1;PMS_P2;Temp;Humidity;BMP_temperature;BMP_pressure;BME280_temperature;BME280_humidity;BME280_pressure;Samples;Min_cycle;Max_cycle;Signal;HPM_P1;HPM_P2
2023/08/02 00:00:39;;;;;;;7.25;4.57;;;;;;;23.93;44.82;94348.50;5087566;28;20024;-76
2023/08/02 00:03:04;;;;;;;5.90;4.28;;;;;;;23.94;44.68;94349.25;5088646;28;20391;-76
2023/08/02 00:05:30;;;;;;;7.15;4.07;;;;;;;23.94;44.84;94350.00;5088032;28;20027;-76
2023/08/02 00:07:56;;;;;;;5.60;4.38;;;;;;;23.98;44.46;94346.91;5087337;28;20079;-76
2023/08/02 00:10:21;;;;;;;5.55;3.97;;;;;;;23.94;44.68;94358.44;5086743;28;20028;-76
2023/08/02 00:12:52;;;;;;;5.78;3.90;;;;;;;23.92;44.99;94354.66;5089030;28;20077;-77
2023/08/02 00:15:20;;;;;;;7.97;3.92;;;;;;;23.90;44.99;94358.00;5087915;28;20498;-77
2023/08/02 00:17:46;;;;;;;5.82;4.18;;;;;;;23.90;44.97;94366.41;5088551;28;20278;-76
2023/08/02 00:20:11;;;;;;;6.35;4.00;;;;;;;23.92;44.98;94363.84;5086781;28;20032;-76
2023/08/02 00:22:37;;;;;;;6.25;3.90;;;;;;;23.94;45.07;94357.69;5088291;28;20070;-77
2023/08/02 00:25:02;;;;;;;7.47;3.83;;;;;;;23.93;45.02;94356.19;5087308;28;20027;-76
2023/08/02 00:27:28;;;;;;;4.30;3.90;;;;;;;23.93;45.26;94361.78;5086378;28;20425;-77
2023/08/02 00:29:53;;;;;;;5.40;4.22;;;;;;;23.93;45.11;94353.38;5087508;28;20092;-77
2023/08/02 00:32:19;;;;;;;6.70;4.07;;;;;;;23.95;44.89;94347.97;5087562;28;20020;-76
2023/08/02 00:34:44;;;;;;;8.18;4.32;;;;;;;23.94;45.05;94358.44;5087438;28;20107;-76
2023/08/02 00:37:10;;;;;;;6.32;4.10;;;;;;;23.94;44.90;94364.03;5086400;28;20456;-77
2023/08/02 00:39:35;;;;;;;8.73;4.50;;;;;;;23.90;45.39;94363.59;5087917;28;20051;-76
2023/08/02 00:42:00;;;;;;;6.15;4.22;;;;;;;23.93;45.17;94358.97;5087964;28;20494;-76
2023/08/02 00:44:26;;;;;;;6.13;4.32;;;;;;;23.91;44.91;94362.31;5087619;28;20024;-76
2023/08/02 00:46:51;;;;;;;7.65;3.88;;;;;;;23.88;45.15;94359.84;5088352;28;20320;-76
2023/08/02 00:49:17;;;;;;;5.93;4.05;;;;;;;23.82;45.15;94357.13;5085733;28;20103;-76
2023/08/02 00:51:42;;;;;;;4.72;4.03;;;;;;;23.86;45.10;94357.56;5088777;28;20028;-76
2023/08/02 00:54:08;;;;;;;4.53;3.53;;;;;;;23.87;45.20;94352.72;5085535;28;20020;-78
2023/08/02 00:56:33;;;;;;;6.25;4.35;;;;;;;23.85;45.15;94354.00;5086954;28;20043;-77
2023/08/02 00:58:59;;;;;;;6.38;4.20;;;;;;;23.87;45.06;94359.09;5087415;28;20031;-78
2023/08/02 01:01:25;;;;;;;5.88;4.05;;;;;;;23.84;45.03;94355.28;5087280;28;20031;-78
2023/08/02 01:03:50;;;;;;;5.88;3.83;;;;;;;23.79;45.14;94352.59;5086545;28;20089;-77
2023/08/02 01:06:44;;;;;;;4.25;3.83;;;;;;;23.78;45.33;94351.06;5085529;28;20035;-77
2023/08/02 01:09:20;;;;;;;;;;;;;;;23.77;45.58;94350.31;5083806;28;20040;-78
2023/08/02 01:11:54;;;;;;;6.18;4.30;;;;;;;23.72;45.25;94351.19;5085884;28;20398;-79
2023/08/02 01:14:20;;;;;;;5.65;4.70;;;;;;;23.72;45.30;94345.56;5087284;28;20494;-78
2023/08/02 01:16:48;;;;;;;6.90;4.00;;;;;;;23.75;45.67;94354.97;5086463;28;20068;-78
2023/08/02 01:19:19;;;;;;;5.28;3.92;;;;;;;23.74;45.30;94345.81;5086796;28;20020;-78
2023/08/02 01:21:45;;;;;;;6.68;4.20;;;;;;;23.73;45.77;94347.06;5086738;28;20031;-77
2023/08/02 01:24:10;;;;;;;4.55;3.75;;;;;;;23.73;45.96;94346.31;5085991;28;20028;-78
2023/08/02 01:26:40;;;;;;;7.10;3.97;;;;;;;23.71;46.13;94346.13;5086549;28;20020;-78
2023/08/02 01:29:07;;;;;;;5.68;3.97;;;;;;;23.69;46.32;94340.28;5086525;28;20031;-78
2023/08/02 01:31:33;;;;;;;7.03;3.97;;;;;;;23.66;46.21;94339.31;5085834;28;20062;-77
2023/08/02 01:33:59;;;;;;;4.97;4.05;;;;;;;23.65;46.28;94332.19;5085856;28;20058;-77
2023/08/02 01:36:24;;;;;;;5.68;3.92;;;;;;;23.60;46.22;94335.81;5085040;28;20435;-77
2023/08/02 01:38:51;;;;;;;7.97;4.32;;;;;;;23.57;46.42;94336.91;5086195;28;20036;-77
2023/08/02 01:41:16;;;;;;;7.45;4.68;;;;;;;23.59;46.83;94337.13;5084522;28;20042;-77
2023/08/02 01:43:42;;;;;;;6.25;4.35;;;;;;;23.58;46.64;94327.19;5087670;28;20031;-76
2023/08/02 01:46:07;;;;;;;7.65;4.32;;;;;;;23.55;46.55;94323.41;5084513;28;20028;-77
2023/08/02 01:48:33;;;;;;;6.03;4.47;;;;;;;23.48;46.47;94326.84;5085697;28;20540;-78
2023/08/02 01:50:58;;;;;;;5.15;4.38;;;;;;;23.42;46.62;94319.81;5086613;28;20028;-77
2023/08/02 01:53:23;;;;;;;6.80;4.50;;;;;;;23.41;46.82;94323.94;5086394;28;20028;-77
2023/08/02 01:55:49;;;;;;;8.48;4.25;;;;;;;23.39;46.90;94324.44;5086882;28;20031;-77
2023/08/02 01:58:14;;;;;;;5.20;4.13;;;;;;;23.39;47.46;94323.69;5084229;28;20024;-77
2023/08/02 02:00:41;;;;;;;6.57;4.55;;;;;;;23.38;47.17;94327.78;5087566;28;20024;-77
2023/08/02 02:03:06;;;;;;;6.05;4.30;;;;;;;23.36;47.09;94325.53;5084281;28;20028;-77
2023/08/02 02:05:32;;;;;;;5.82;4.45;;;;;;;23.33;47.51;94330.16;5085911;28;20032;-77
2023/08/02 02:07:57;;;;;;;5.28;4.68;;;;;;;23.29;46.96;94328.97;5084517;28;20101;-77
2023/08/02 02:10:23;;;;;;;7.53;4.70;;;;;;;23.26;47.08;94330.03;5085261;28;20020;-77
2023/08/02 02:12:48;;;;;;;4.82;4.00;;;;;;;23.25;47.15;94329.28;5085110;28;20101;-77
2023/08/02 02:15:13;;;;;;;5.30;4.28;;;;;;;23.23;47.81;94336.72;5085644;28;20031;-77
2023/08/02 02:17:39;;;;;;;7.57;4.40;;;;;;;23.24;47.81;94338.22;5085668;28;20030;-77
2023/08/02 02:20:06;;;;;;;6.97;4.63;;;;;;;23.23;47.47;94345.88;5066497;28;20070;-77
2023/08/02 02:22:31;;;;;;;7.05;4.25;;;;;;;23.20;47.86;94335.72;5087321;28;20555;-77
2023/08/02 02:24:56;;;;;;;5.60;4.38;;;;;;;23.15;47.82;94333.00;5085370;28;20032;-77
2023/08/02 02:27:22;;;;;;;5.20;4.30;;;;;;;23.18;47.96;94340.38;5085022;28;20439;-77
2023/08/02 02:29:47;;;;;;;5.93;4.88;;;;;;;23.19;47.68;94345.44;5086242;28;20016;-77
2023/08/02 02:32:13;;;;;;;6.88;4.32;;;;;;;23.16;47.95;94360.50;5084372;28;20028;-76
2023/08/02 02:34:38;;;;;;;5.82;4.47;;;;;;;23.16;47.86;94354.16;5086073;28;20032;-77
2023/08/02 02:37:04;;;;;;;5.05;4.32;;;;;;;23.18;47.85;94360.00;5085124;28;20067;-77
2023/08/02 02:39:29;;;;;;;6.32;4.60;;;;;;;23.17;47.62;94361.25;5086550;28;20028;-77
2023/08/02 02:41:55;;;;;;;7.35;4.68;;;;;;;23.14;47.06;94365.91;5084798;28;20076;-77
2023/08/02 02:44:20;;;;;;;4.65;4.00;;;;;;;23.08;46.87;94356.06;5086674;28;20020;-77
2023/08/02 02:46:45;;;;;;;4.80;4.13;;;;;;;23.05;46.98;94364.25;5085525;28;20028;-77
2023/08/02 02:49:11;;;;;;;7.45;4.63;;;;;;;23.05;46.69;94364.25;5085881;28;20516;-77
2023/08/02 02:51:36;;;;;;;5.28;3.90;;;;;;;23.02;47.21;94382.13;5086358;28;20059;-77
2023/08/02 02:54:02;;;;;;;5.18;3.83;;;;;;;23.02;46.80;94390.53;5084992;28;20400;-77
2023/08/02 02:56:27;;;;;;;6.13;4.55;;;;;;;22.98;47.09;94392.88;5085303;28;20035;-77
2023/08/02 02:58:52;;;;;;;6.32;4.32;;;;;;;22.92;46.97;94392.22;5066413;28;20070;-77
2023/08/02 03:01:18;;;;;;;5.53;4.07;;;;;;;22.87;46.80;94390.25;5086762;28;20490;-77
2023/08/02 03:03:43;;;;;;;6.10;4.20;;;;;;;22.90;46.88;94380.03;5085225;28;20049;-77
2023/08/02 03:06:09;;;;;;;6.05;4.35;;;;;;;22.87;46.33;94383.84;5086628;28;20054;-77
2023/08/02 03:08:34;;;;;;;9.68;4.40;;;;;;;22.86;46.41;94385.91;5084204;28;20040;-77
2023/08/02 03:11:00;;;;;;;6.28;4.15;;;;;;;22.82;46.51;94376.28;5085373;28;20024;-77
2023/08/02 03:13:25;;;;;;;5.20;4.25;;;;;;;22.80;46.57;94379.63;5086674;28;20032;-77
2023/08/02 03:15:50;;;;;;;5.47;3.92;;;;;;;22.78;46.54;94382.22;5083415;28;20020;-77
2023/08/02 03:18:16;;;;;;;6.43;3.67;;;;;;;22.75;47.05;94384.00;5085115;28;20016;-77
2023/08/02 03:20:41;;;;;;;6.05;4.80;;;;;;;22.76;46.94;94381.97;5083308;28;20406;-77
2023/08/02 03:23:07;;;;;;;4.82;4.32;;;;;;;22.78;46.79;94387.81;5085080;28;20032;-76
2023/08/02 03:25:33;;;;;;;8.52;4.95;;;;;;;22.78;46.79;94385.00;5084120;28;20837;-76
2023/08/02 03:27:58;;;;;;;6.22;4.20;;;;;;;22.80;46.96;94393.63;5084450;28;20028;-75
2023/08/02 03:30:23;;;;;;;7.13;4.43;;;;;;;22.73;47.00;94389.41;5086225;28;20024;-76
2023/08/02 03:32:49;;;;;;;6.38;4.40;;;;;;;22.74;47.09;94396.50;5084921;28;20031;-76
2023/08/02 03:35:14;;;;;;;6.13;4.50;;;;;;;22.75;47.08;94394.47;5086378;28;20024;-76
2023/08/02 03:37:40;;;;;;;4.85;4.10;;;;;;;22.77;47.00;94398.25;5083204;28;20134;-76
2023/08/02 03:40:05;;;;;;;6.57;4.55;;;;;;;22.76;47.12;94388.31;5084829;28;20474;-77
2023/08/02 03:42:31;;;;;;;6.75;4.18;;;;;;;22.74;46.81;94393.72;5084392;28;20112;-76
2023/08/02 03:44:56;;;;;;;7.20;3.83;;;;;;;22.73;47.07;94389.41;5086246;28;20020;-77
2023/08/02 03:47:21;;;;;;;5.60;4.88;;;;;;;22.71;47.46;94389.19;5089159;28;20081;-77
2023/08/02 03:49:47;;;;;;;7.63;4.78;;;;;;;22.77;47.56;94389.09;5089230;28;20448;-76
2023/08/02 03:52:12;;;;;;;7.90;5.15;;;;;;;22.71;48.01;94380.00;5089475;28;20023;-77
2023/08/02 03:54:38;;;;;;;8.93;5.55;;;;;;;22.78;48.06;94393.41;5088225;28;20052;-78
2023/08/02 03:57:04;;;;;;;7.20;4.88;;;;;;;22.82;48.10;94393.09;5089422;28;20028;-77
2023/08/02 03:59:29;;;;;;;10.65;5.75;;;;;;;22.79;48.26;94401.28;5086364;28;20028;-76
2023/08/02 04:01:54;;;;;;;7.03;5.45;;;;;;;22.80;48.12;94397.19;5087943;28;20099;-76
2023/08/02 04:04:21;;;;;;;7.93;5.70;;;;;;;22.78;48.45;94391.38;5088008;28;20023;-77
2023/08/02 04:06:46;;;;;;;8.38;6.00;;;;;;;22.79;48.44;94400.53;5089312;28;20103;-77
2023/08/02 04:09:12;;;;;;;8.90;5.57;;;;;;;22.81;48.59;94392.34;5087065;28;20131;-76
2023/08/02 04:11:37;;;;;;;9.98;5.75;;;;;;;22.78;48.61;94393.41;5088130;28;20115;-77
2023/08/02 04:14:02;;;;;;;13.32;5.68;;;;;;;22.82;47.83;94396.66;5087773;28;20559;-77
2023/08/02 04:16:28;;;;;;;6.35;5.20;;;;;;;22.79;48.15;94392.13;5087408;28;20115;-77
2023/08/02 04:18:53;;;;;;;7.35;5.70;;;;;;;22.81;48.03;94403.53;5088808;28;20555;-76
2023/08/02 04:21:19;;;;;;;9.38;6.32;;;;;;;22.78;47.86;94390.63;5087154;28;20111;-78
2023/08/02 04:23:48;;;;;;;7.97;5.68;;;;;;;22.83;47.87;94397.44;5087882;28;20476;-78
2023/08/02 04:26:13;;;;;;;8.75;5.40;;;;;;;22.83;48.18;94403.03;5087892;28;20425;-78
2023/08/02 04:28:39;;;;;;;8.38;5.53;;;;;;;22.88;48.05;94394.59;5088331;28;20050;-76
2023/08/02 04:31:04;;;;;;;7.68;6.00;;;;;;;22.87;47.73;94387.44;5088964;28;20103;-77
2023/08/02 04:33:30;;;;;;;8.38;6.03;;;;;;;22.95;47.52;94384.81;5087447;28;20070;-76
2023/08/02 04:36:02;;;;;;;6.45;5.57;;;;;;;22.95;47.48;94379.94;5088696;28;20027;-77
2023/08/02 04:38:27;;;;;;;7.97;5.72;;;;;;;22.98;47.23;94387.28;5069003;28;20028;-77
2023/08/02 04:40:52;;;;;;;6.45;5.38;;;;;;;22.99;47.01;94394.41;5087574;28;20066;-77
2023/08/02 04:43:18;;;;;;;8.20;5.32;;;;;;;23.01;46.96;94394.63;5088030;28;20399;-77
2023/08/02 04:45:43;;;;;;;6.38;5.20;;;;;;;23.04;47.22;94390.75;5087119;28;20020;-77
2023/08/02 04:48:09;;;;;;;6.55;5.20;;;;;;;23.05;47.39;94397.91;5088205;28;20035;-77
2023/08/02 04:50:35;;;;;;;8.32;5.85;;;;;;;23.11;47.37;94397.03;5087408;28;20028;-77
2023/08/02 04:53:00;;;;;;;6.72;5.32;;;;;;;23.17;47.54;94401.28;5087028;28;20067;-76
2023/08/02 04:55:26;;;;;;;8.30;5.57;;;;;;;23.18;47.31;94408.41;5085304;28;20051;-77
2023/08/02 04:57:51;;;;;;;9.65;5.43;;;;;;;23.24;47.26;94420.28;5086616;28;20044;-76
2023/08/02 05:00:17;;;;;;;9.90;5.53;;;;;;;23.29;46.99;94418.69;5086620;28;20036;-77
2023/08/02 05:02:42;;;;;;;7.65;5.68;;;;;;;23.31;47.26;94419.66;5088388;28;20016;-76
2023/08/02 05:05:08;;;;;;;10.48;5.80;;;;;;;23.35;47.73;94402.53;5087379;28;20119;-77
2023/08/02 05:07:34;;;;;;;6.90;5.93;;;;;;;23.40;47.27;94410.09;5085944;28;20036;-77
2023/08/02 05:10:03;;;;;;;7.45;5.50;;;;;;;23.39;47.64;94408.56;5069688;28;20489;-77
2023/08/02 05:12:39;;;;;;;9.55;5.90;;;;;;;23.43;47.03;94406.22;5085258;28;20062;-77
2023/08/02 05:15:06;;;;;;;7.53;5.63;;;;;;;23.47;46.98;94415.09;5086856;28;20043;-77
2023/08/02 05:17:31;;;;;;;8.55;5.80;;;;;;;23.56;46.65;94420.28;5086517;28;20052;-77
2023/08/02 05:19:57;;;;;;;8.40;5.40;;;;;;;23.54;46.48;94420.06;5087577;28;20596;-77
2023/08/02 05:22:22;;;;;;;8.23;6.05;;;;;;;23.57;46.26;94421.06;5086989;28;20088;-77
2023/08/02 05:24:49;;;;;;;9.57;5.65;;;;;;;23.58;46.34;94433.78;5087149;28;20506;-77
2023/08/02 05:27:15;;;;;;;10.55;6.03;;;;;;;23.59;46.58;94429.69;5086332;28;20061;-77
2023/08/02 05:29:40;;;;;;;9.93;5.70;;;;;;;23.68;46.38;94426.50;5086118;28;20058;-76
2023/08/02 05:32:06;;;;;;;8.25;5.50;;;;;;;23.70;46.57;94428.78;5088091;28;20044;-77
2023/08/02 05:34:31;;;;;;;13.52;6.22;;;;;;;23.71;46.77;94438.72;5084794;28;20020;-77
2023/08/02 05:36:57;;;;;;;10.50;5.80;;;;;;;23.77;47.02;94442.16;5087718;28;20028;-76
2023/08/02 05:39:22;;;;;;;10.95;6.10;;;;;;;23.75;46.78;94436.34;5085110;28;20024;-77
2023/08/02 05:41:48;;;;;;;10.05;5.65;;;;;;;23.79;46.96;94445.19;5086546;28;20565;-76
2023/08/02 05:44:13;;;;;;;9.95;5.57;;;;;;;23.81;47.08;94454.59;5085835;28;20026;-77
2023/08/02 05:46:39;;;;;;;12.00;5.72;;;;;;;23.78;47.01;94449.28;5086722;28;20057;-77
2023/08/02 05:49:04;;;;;;;11.73;6.20;;;;;;;23.85;47.19;94457.06;5086337;28;20032;-77
2023/08/02 05:51:29;;;;;;;10.60;6.15;;;;;;;23.92;46.85;94466.94;5085588;28;20099;-77
2023/08/02 05:53:55;;;;;;;12.55;6.35;;;;;;;23.86;46.61;94450.19;5087635;28;20028;-77
2023/08/02 05:56:21;;;;;;;8.95;5.88;;;;;;;23.92;46.53;94462.09;5084169;28;20426;-77
2023/08/02 05:58:46;;;;;;;7.45;6.63;;;;;;;23.95;46.24;94463.03;5086043;28;20035;-77
2023/08/02 06:01:11;;;;;;;9.77;7.00;;;;;;;23.93;45.94;94463.59;5084141;28;20509;-77
2023/08/02 06:03:37;;;;;;;13.05;6.95;;;;;;;23.87;46.17;94465.72;5085650;28;20406;-77
2023/08/02 06:06:02;;;;;;;9.13;6.93;;;;;;;23.91;46.38;94466.16;5087212;28;20403;-77
2023/08/02 06:08:28;;;;;;;10.60;6.88;;;;;;;23.94;46.42;94467.16;5084338;28;20081;-77
2023/08/02 06:10:54;;;;;;;11.27;7.80;;;;;;;24.01;46.23;94456.03;5087190;28;20028;-77
2023/08/02 06:13:19;;;;;;;12.52;7.85;;;;;;;24.05;46.10;94469.75;5085042;28;20380;-77
2023/08/02 06:15:45;;;;;;;10.63;7.70;;;;;;;24.08;46.26;94479.91;5085948;28;20035;-77
2023/08/02 06:18:10;;;;;;;8.90;7.18;;;;;;;24.12;46.25;94471.94;5084760;28;20025;-78
2023/08/02 06:20:36;;;;;;;8.77;7.97;;;;;;;24.23;46.21;94468.16;5085190;28;20094;-78
2023/08/02 06:23:01;;;;;;;10.68;8.30;;;;;;;24.30;45.69;94470.31;5086344;28;20024;-78
2023/08/02 06:25:27;;;;;;;10.75;8.25;;;;;;;24.33;45.85;94472.81;5086653;28;20024;-78
2023/08/02 06:27:53;;;;;;;13.25;8.90;;;;;;;24.40;45.55;94463.03;5087489;28;20039;-78
2023/08/02 06:30:18;;;;;;;9.73;7.60;;;;;;;24.52;45.85;94467.13;5068265;28;20137;-78
2023/08/02 06:32:47;;;;;;;9.85;7.60;;;;;;;24.61;45.26;94463.13;5092299;28;20030;-78
2023/08/02 06:35:12;;;;;;;10.50;7.95;;;;;;;24.72;45.10;94467.78;5060025;28;20071;-78
2023/08/02 06:37:38;;;;;;;11.02;8.10;;;;;;;24.78;45.23;94468.41;5074005;28;20024;-77
2023/08/02 06:40:04;;;;;;;12.40;8.52;;;;;;;24.85;45.16;94460.09;5085013;28;20043;-78
2023/08/02 06:42:29;;;;;;;9.13;8.25;;;;;;;24.96;44.84;94455.53;5086746;28;20459;-77
2023/08/02 06:44:54;;;;;;;11.82;9.07;;;;;;;25.05;44.94;94447.41;5086352;28;20517;-77
2023/08/02 06:47:20;;;;;;;13.48;8.57;;;;;;;25.15;44.59;94454.09;5085342;28;20012;-77
2023/08/02 06:49:45;;;;;;;10.75;8.55;;;;;;;25.25;44.31;94451.59;5087679;28;20036;-77
2023/08/02 06:52:11;;;;;;;13.27;8.80;;;;;;;25.37;44.05;94454.91;5084576;28;20510;-77
2023/08/02 06:54:37;;;;;;;10.13;8.27;;;;;;;25.51;43.88;94450.72;5088087;28;20066;-77
2023/08/02 06:57:02;;;;;;;9.52;8.52;;;;;;;25.60;43.79;94455.88;5067388;28;20024;-77
2023/08/02 06:59:27;;;;;;;11.85;8.57;;;;;;;25.72;43.50;94456.38;5085782;28;20433;-77
2023/08/02 07:01:53;;;;;;;10.13;8.18;;;;;;;25.82;43.79;94453.88;5084782;28;20028;-76
2023/08/02 07:04:18;;;;;;;10.43;8.90;;;;;;;25.91;43.55;94456.19;5086691;28;20482;-76
2023/08/02 07:06:44;;;;;;;13.15;9.52;;;;;;;26.01;42.96;94467.72;5087638;28;20024;-77
2023/08/02 07:09:10;;;;;;;14.13;10.90;;;;;;;26.02;42.78;94461.53;5084962;28;20179;-77
2023/08/02 07:11:35;;;;;;;9.27;8.40;;;;;;;26.07;42.86;94469.09;5085822;28;20020;-76
2023/08/02 07:14:01;;;;;;;10.30;8.90;;;;;;;26.05;43.02;94460.44;5085284;28;20023;-76
2023/08/02 07:16:26;;;;;;;11.18;8.63;;;;;;;26.07;43.14;94469.09;5087062;28;20024;-75
2023/08/02 07:18:51;;;;;;;11.98;9.75;;;;;;;26.13;43.09;94463.31;5084824;28;20521;-76
2023/08/02 07:21:17;;;;;;;11.85;9.02;;;;;;;26.16;42.93;94465.78;5090003;28;20028;-75
2023/08/02 07:23:42;;;;;;;11.48;9.18;;;;;;;26.23;42.69;94458.69;5089738;28;20032;-77
2023/08/02 07:26:09;;;;;;;11.98;8.65;;;;;;;26.26;42.94;94466.03;5088916;28;20566;-76
2023/08/02 07:28:34;;;;;;;10.35;8.60;;;;;;;26.32;43.12;94460.25;5088960;28;20035;-76
2023/08/02 07:31:18;;;;;;;11.35;8.93;;;;;;;26.41;42.63;94448.50;5069679;28;20024;-75
2023/08/02 07:33:45;;;;;;;11.40;9.00;;;;;;;26.46;42.57;94453.25;5090221;28;20077;-76
2023/08/02 07:36:15;;;;;;;10.55;9.13;;;;;;;26.55;42.49;94449.91;5088077;28;20028;-76
2023/08/02 07:38:41;;;;;;;11.18;9.10;;;;;;;26.59;42.50;94464.41;5090305;28;20513;-76
2023/08/02 07:41:06;;;;;;;10.02;8.82;;;;;;;26.62;42.58;94463.31;5088443;28;20229;-78
2023/08/02 07:43:31;;;;;;;9.25;8.10;;;;;;;26.68;42.59;94472.38;5089087;28;20028;-78
2023/08/02 07:45:57;;;;;;;10.05;8.07;;;;;;;26.76;42.54;94461.13;5090291;28;20046;-76
2023/08/02 07:48:22;;;;;;;10.82;8.70;;;;;;;26.85;42.31;94469.06;5088849;28;20039;-77
2023/08/02 07:50:48;;;;;;;9.75;8.20;;;;;;;26.88;42.12;94467.94;5089163;28;20486;-77
2023/08/02 07:53:13;;;;;;;10.63;8.80;;;;;;;26.97;41.92;94463.88;5087791;28;20031;-77
2023/08/02 07:55:38;;;;;;;9.60;8.50;;;;;;;27.06;42.15;94471.03;5089894;28;20375;-77
2023/08/02 07:58:04;;;;;;;12.82;9.57;;;;;;;27.09;41.83;94453.78;5088049;28;20073;-77
2023/08/02 08:00:29;;;;;;;10.48;9.45;;;;;;;27.18;41.78;94458.13;5089171;28;20063;-76
2023/08/02 08:02:55;;;;;;;9.80;8.75;;;;;;;27.23;42.07;94460.78;5089239;28;20051;-76
2023/08/02 08:05:20;;;;;;;12.13;8.77;;;;;;;27.30;41.92;94456.50;5087632;28;20024;-76
2023/08/02 08:07:45;;;;;;;8.95;7.90;;;;;;;27.40;41.74;94453.88;5089901;28;20490;-77
2023/08/02 08:10:11;;;;;;;9.02;8.07;;;;;;;27.51;41.49;94456.34;5087894;28;20036;-76
2023/08/02 08:12:37;;;;;;;11.73;7.88;;;;;;;27.59;41.43;94451.50;5088826;28;20024;-77
2023/08/02 08:15:03;;;;;;;10.18;7.53;;;;;;;27.70;40.37;94454.00;5086168;28;20322;-77
2023/08/02 08:17:28;;;;;;;8.88;7.97;;;;;;;27.81;40.20;94458.50;5088538;28;20297;-77
2023/08/02 08:19:54;;;;;;;13.30;8.27;;;;;;;27.92;40.12;94455.31;5088308;28;20397;-77
2023/08/02 08:22:21;;;;;;;9.73;7.57;;;;;;;28.10;39.34;94459.09;5088590;28;20406;-76
2023/08/02 08:24:46;;;;;;;7.72;7.00;;;;;;;28.23;39.17;94452.50;5089521;28;20046;-78
2023/08/02 08:27:12;;;;;;;11.00;7.57;;;;;;;28.35;38.66;94453.66;5085731;28;20020;-79
2023/08/02 08:29:37;;;;;;;8.15;7.32;;;;;;;28.49;38.67;94454.19;5089269;28;20024;-77
2023/08/02 08:32:03;;;;;;;7.68;6.88;;;;;;;28.60;38.48;94450.97;5085959;28;20082;-78
2023/08/02 08:34:28;;;;;;;9.07;8.23;;;;;;;28.70;38.23;94460.38;5089206;28;20085;-78
2023/08/02 08:36:53;;;;;;;8.60;7.75;;;;;;;28.77;38.29;94453.94;5085908;28;20094;-78
2023/08/02 08:39:19;;;;;;;9.75;7.80;;;;;;;28.88;38.09;94449.19;5087461;28;20031;-76
2023/08/02 08:41:45;;;;;;;8.65;7.65;;;;;;;28.97;37.87;94455.06;5088337;28;20032;-76
2023/08/02 08:44:11;;;;;;;9.40;8.15;;;;;;;29.05;37.00;94450.09;5086121;28;20055;-76
2023/08/02 08:46:36;;;;;;;8.13;7.15;;;;;;;29.12;37.12;94454.22;5087788;28;20024;-76
2023/08/02 08:49:02;;;;;;;10.27;7.15;;;;;;;29.21;36.78;94464.22;5086620;28;20102;-76
2023/08/02 08:51:32;;;;;;;11.05;6.93;;;;;;;29.31;36.61;94448.13;5087747;28;20024;-77
2023/08/02 08:54:00;;;;;;;8.00;7.20;;;;;;;29.36;36.29;94452.78;5086679;28;20035;-76
2023/08/02 08:56:26;;;;;;;8.57;7.68;;;;;;;29.48;36.47;94453.13;5087874;28;20028;-77
2023/08/02 08:58:53;;;;;;;7.75;6.85;;;;;;;29.58;35.79;94451.19;5086278;28;20085;-77
2023/08/02 09:01:18;;;;;;;8.38;6.63;;;;;;;29.65;35.96;94455.31;5088253;28;20043;-76
2023/08/02 09:03:45;;;;;;;9.23;6.30;;;;;;;29.74;35.17;94454.69;5087720;28;20020;-77
2023/08/02 09:06:12;;;;;;;8.80;6.55;;;;;;;29.86;34.94;94450.09;5086630;28;20016;-77
2023/08/02 09:08:43;;;;;;;7.88;6.68;;;;;;;30.01;34.35;94452.81;5087138;28;20044;-76
2023/08/02 09:11:09;;;;;;;8.18;5.97;;;;;;;30.14;34.31;94449.72;5086251;28;20031;-78
2023/08/02 09:13:34;;;;;;;7.85;6.10;;;;;;;30.31;33.33;94443.34;5087163;28;20021;-78
2023/08/02 09:16:08;;;;;;;9.93;5.05;;;;;;;30.48;31.45;94445.44;5068313;28;20411;-77
2023/08/02 09:18:38;;;;;;;6.75;5.13;;;;;;;30.60;31.51;94437.19;5087874;28;20126;-77
2023/08/02 09:21:04;;;;;;;6.78;5.38;;;;;;;30.77;32.15;94436.50;5086462;28;20085;-78
2023/08/02 09:23:29;;;;;;;6.68;5.88;;;;;;;30.85;32.31;94440.75;5086351;28;20024;-76
2023/08/02 09:26:11;;;;;;;7.25;5.97;;;;;;;30.98;32.35;94444.59;5088424;28;20165;-76
2023/08/02 09:28:37;;;;;;;6.28;5.65;;;;;;;31.06;31.91;94443.16;5084886;28;20024;-76
2023/08/02 09:31:18;;;;;;;6.65;5.88;;;;;;;31.13;31.80;94445.16;5087744;28;20039;-76
2023/08/02 09:33:52;;;;;;;6.70;5.35;;;;;;;31.35;30.64;94432.03;5085881;28;20035;-76
2023/08/02 09:36:22;;;;;;;10.18;4.55;;;;;;;31.45;29.39;94446.31;5084835;28;20519;-76
2023/08/02 09:39:04;;;;;;;4.88;4.22;;;;;;;31.57;29.23;94443.69;5086322;28;20024;-76
2023/08/02 09:41:31;;;;;;;5.80;5.03;;;;;;;31.58;28.94;94434.56;5084540;28;20038;-76
2023/08/02 09:43:57;;;;;;;6.75;4.75;;;;;;;31.67;28.85;94441.66;5086583;28;20169;-76
2023/08/02 09:46:30;;;;;;;5.30;4.45;;;;;;;31.85;28.58;94448.78;5084409;28;20024;-76
2023/08/02 09:48:59;;;;;;;5.63;4.40;;;;;;;32.02;28.53;94447.22;5085628;28;20115;-79
2023/08/02 09:51:41;;;;;;;6.03;4.57;;;;;;;32.18;28.72;94448.50;5086530;28;20024;-76
2023/08/02 09:54:07;;;;;;;5.20;4.30;;;;;;;32.33;28.47;94438.94;5084182;28;20506;-76
2023/08/02 09:56:37;;;;;;;8.38;4.88;;;;;;;32.51;27.85;94438.25;5086591;28;20097;-76
2023/08/02 09:59:04;;;;;;;7.25;4.47;;;;;;;32.66;27.81;94440.09;5086024;28;20085;-77
2023/08/02 10:01:30;;;;;;;7.72;4.53;;;;;;;32.76;27.26;94440.13;5087505;28;20067;-77
2023/08/02 10:03:58;;;;;;;7.38;4.40;;;;;;;32.86;26.67;94434.41;5086766;28;20058;-77
2023/08/02 10:06:47;;;;;;;4.72;4.15;;;;;;;32.85;27.27;94439.34;5086434;28;20035;-76
2023/08/02 10:09:18;;;;;;;5.05;3.90;;;;;;;32.91;26.93;94430.53;5075320;28;20495;-77
2023/08/02 10:11:48;;;;;;;;;;;;;;;32.93;26.45;94439.25;5086058;28;20048;-76
2023/08/02 10:14:13;;;;;;;6.60;4.13;;;;;;;32.94;26.45;94432.97;5085949;28;19922;-77
2023/08/02 10:16:40;;;;;;;5.20;4.45;;;;;;;33.12;26.19;94432.81;5085986;28;20017;-77
2023/08/02 10:19:06;;;;;;;6.82;4.10;;;;;;;33.35;25.75;94427.38;5068199;28;20032;-77
2023/08/02 10:21:34;;;;;;;8.77;3.95;;;;;;;33.48;25.92;94429.03;5069561;28;20116;-78
2023/08/02 10:23:59;;;;;;;10.63;4.20;;;;;;;33.64;25.55;94423.75;5085160;28;20032;-77
2023/08/02 10:26:25;;;;;;;5.03;3.80;;;;;;;33.73;25.59;94429.44;5086957;28;20050;-77
2023/08/02 10:28:51;;;;;;;7.68;4.35;;;;;;;33.85;25.04;94428.81;5084833;28;20041;-77
2023/08/02 10:31:17;;;;;;;4.28;3.88;;;;;;;33.93;25.19;94418.72;5087921;28;20032;-77
2023/08/02 10:33:43;;;;;;;4.32;3.50;;;;;;;34.06;24.94;94423.94;5084989;28;20028;-77
2023/08/02 10:36:08;;;;;;;5.07;3.38;;;;;;;34.23;24.38;94408.69;5086818;28;20507;-78
2023/08/02 10:38:39;;;;;;;5.78;3.80;;;;;;;34.45;24.49;94417.31;5086480;28;20464;-78
2023/08/02 10:41:08;;;;;;;4.80;4.10;;;;;;;34.63;24.64;94412.09;5086113;28;20024;-77
2023/08/02 10:43:34;;;;;;;6.22;3.72;;;;;;;34.73;23.96;94413.53;5087100;28;20027;-77
2023/08/02 10:46:29;;;;;;;5.20;3.90;;;;;;;34.88;24.05;94420.19;5084040;28;20462;-77
2023/08/02 10:48:56;;;;;;;6.47;3.53;;;;;;;34.98;23.50;94418.75;5069638;28;20076;-77
2023/08/02 10:51:27;;;;;;;5.53;3.80;;;;;;;35.08;23.84;94427.25;5084253;28;20485;-77
2023/08/02 10:54:12;;;;;;;6.05;3.90;;;;;;;35.23;23.66;94423.97;5085026;28;20024;-77
2023/08/02 10:56:56;;;;;;;7.22;3.72;;;;;;;35.38;23.40;94425.63;5091118;28;20031;-78
2023/08/02 10:59:25;;;;;;;6.50;4.00;;;;;;;35.50;22.50;94417.91;5088990;28;20024;-78
2023/08/02 11:02:10;;;;;;;6.55;3.35;;;;;;;35.62;22.94;94418.66;5091269;28;20035;-78
2023/08/02 11:04:37;;;;;;;4.55;3.15;;;;;;;35.72;22.81;94418.53;5090173;28;20024;-77
2023/08/02 11:07:19;;;;;;;5.18;3.55;;;;;;;35.71;22.50;94410.59;5089565;28;20020;-76
2023/08/02 11:09:46;;;;;;;9.25;3.90;;;;;;;35.81;22.59;94417.69;5072573;28;20529;-78
2023/08/02 11:12:11;;;;;;;6.53;3.78;;;;;;;35.89;22.37;94417.44;5070290;28;20051;-77
2023/08/02 11:14:41;;;;;;;4.50;3.35;;;;;;;35.96;22.27;94412.88;5090637;28;20028;-76
2023/08/02 11:17:06;;;;;;;7.05;3.78;;;;;;;36.08;22.29;94411.53;5088808;28;20032;-77
2023/08/02 11:19:32;;;;;;;6.18;3.42;;;;;;;36.22;22.05;94408.81;5088764;28;20068;-76
2023/08/02 11:22:01;;;;;;;5.90;3.70;;;;;;;36.42;21.87;94406.47;5088527;28;20410;-77
2023/08/02 11:24:27;;;;;;;4.28;3.10;;;;;;;36.48;21.12;94408.94;5087808;28;20534;-76
2023/08/02 11:26:56;;;;;;;6.22;3.00;;;;;;;36.64;21.44;94402.06;5072046;28;20058;-79
2023/08/02 11:29:22;;;;;;;6.93;3.30;;;;;;;36.66;21.24;94390.75;5087110;28;20024;-78